sensor_id;sensor_type;location;lat;lon;timestamp;P1;durP1;ratioP1;P2;durP2;ratioP2
23159;SDS011;11748;50.844;4.396;2024-03-08T00:01:55;21.10;;;14.60;;
23159;SDS011;11748;50.844;4.396;2024-03-08T00:04:21;22.35;;;14.98;;
23159;SDS011;11748;50.844;4.396;2024-03-08T00:06:47;29.58;;;15.63;;
23159;SDS011;11748;50.844;4.396;2024-03-08T00:09:13;28.35;;;15.40;;
23159;SDS011;11748;50.844;4.396;2024-03-08T00:11:39;25.88;;;14.80;;
23159;SDS011;11748;50.844;4.396;2024-03-08T00:14:04;26.55;;;15.27;;
23159;SDS011;11748;50.844;4.396;2024-03-08T00:16:32;25.50;;;15.15;;
23159;SDS011;11748;50.844;4.396;2024-03-08T00:18:58;25.50;;;15.15;;
23159;SDS011;11748;50.844;4.396;2024-03-08T00:21:24;27.90;;;16.23;;
23159;SDS011;11748;50.844;4.396;2024-03-08T00:23:52;24.05;;;14.95;;
23159;SDS011;11748;50.844;4.396;2024-03-08T00:26:21;27.33;;;15.52;;
23159;SDS011;11748;50.844;4.396;2024-03-08T00:28:49;25.55;;;15.80;;
23159;SDS011;11748;50.844;4.396;2024-03-08T00:31:15;25.65;;;14.93;;
23159;SDS011;11748;50.844;4.396;2024-03-08T00:33:43;29.52;;;16.38;;
23159;SDS011;11748;50.844;4.396;2024-03-08T00:36:08;28.73;;;16.02;;
23159;SDS011;11748;50.844;4.396;2024-03-08T00:38:34;25.63;;;15.57;;
23159;SDS011;11748;50.844;4.396;2024-03-08T00:41:00;25.70;;;16.00;;
23159;SDS011;11748;50.844;4.396;2024-03-08T00:43:25;27.05;;;16.67;;
23159;SDS011;11748;50.844;4.396;2024-03-08T00:45:52;27.75;;;15.82;;
23159;SDS011;11748;50.844;4.396;2024-03-08T00:48:20;25.88;;;15.90;;
23159;SDS011;11748;50.844;4.396;2024-03-08T00:50:45;27.38;;;15.95;;
23159;SDS011;11748;50.844;4.396;2024-03-08T00:53:11;29.23;;;17.30;;
23159;SDS011;11748;50.844;4.396;2024-03-08T00:55:37;27.52;;;16.42;;
23159;SDS011;11748;50.844;4.396;2024-03-08T00:58:04;28.85;;;15.52;;
23159;SDS011;11748;50.844;4.396;2024-03-08T01:00:29;24.35;;;15.63;;
23159;SDS011;11748;50.844;4.396;2024-03-08T01:02:56;27.83;;;15.68;;
23159;SDS011;11748;50.844;4.396;2024-03-08T01:05:22;22.85;;;14.95;;
23159;SDS011;11748;50.844;4.396;2024-03-08T01:07:50;25.85;;;16.73;;
23159;SDS011;11748;50.844;4.396;2024-03-08T01:10:16;23.35;;;15.70;;
23159;SDS011;11748;50.844;4.396;2024-03-08T01:12:42;27.60;;;16.45;;
23159;SDS011;11748;50.844;4.396;2024-03-08T01:15:11;25.77;;;16.10;;
23159;SDS011;11748;50.844;4.396;2024-03-08T01:17:37;25.45;;;15.75;;
23159;SDS011;11748;50.844;4.396;2024-03-08T01:20:03;25.40;;;15.23;;
23159;SDS011;11748;50.844;4.396;2024-03-08T01:22:30;26.33;;;17.27;;
23159;SDS011;11748;50.844;4.396;2024-03-08T01:24:56;25.40;;;16.15;;
23159;SDS011;11748;50.844;4.396;2024-03-08T01:27:23;27.60;;;16.27;;
23159;SDS011;11748;50.844;4.396;2024-03-08T01:29:49;28.10;;;17.42;;
23159;SDS011;11748;50.844;4.396;2024-03-08T01:32:16;24.30;;;15.80;;
23159;SDS011;11748;50.844;4.396;2024-03-08T01:34:42;28.48;;;16.75;;
23159;SDS011;11748;50.844;4.396;2024-03-08T01:37:10;28.52;;;17.23;;
23159;SDS011;11748;50.844;4.396;2024-03-08T01:39:36;29.35;;;18.33;;
23159;SDS011;11748;50.844;4.396;2024-03-08T01:42:02;26.92;;;17.10;;
23159;SDS011;11748;50.844;4.396;2024-03-08T01:44:29;28.80;;;17.85;;
23159;SDS011;11748;50.844;4.396;2024-03-08T01:46:56;26.65;;;16.70;;
23159;SDS011;11748;50.844;4.396;2024-03-08T01:49:22;27.52;;;17.73;;
23159;SDS011;11748;50.844;4.396;2024-03-08T01:51:50;29.77;;;17.55;;
23159;SDS011;11748;50.844;4.396;2024-03-08T01:54:17;28.90;;;17.65;;
23159;SDS011;11748;50.844;4.396;2024-03-08T01:56:45;30.50;;;18.23;;
23159;SDS011;11748;50.844;4.396;2024-03-08T01:59:11;28.38;;;18.10;;
23159;SDS011;11748;50.844;4.396;2024-03-08T02:01:37;25.00;;;16.92;;
23159;SDS011;11748;50.844;4.396;2024-03-08T02:04:03;28.30;;;17.58;;
23159;SDS011;11748;50.844;4.396;2024-03-08T02:06:31;28.25;;;18.35;;
23159;SDS011;11748;50.844;4.396;2024-03-08T02:08:56;31.92;;;19.33;;
23159;SDS011;11748;50.844;4.396;2024-03-08T02:11:22;28.35;;;18.50;;
23159;SDS011;11748;50.844;4.396;2024-03-08T02:13:48;30.17;;;18.38;;
23159;SDS011;11748;50.844;4.396;2024-03-08T02:16:19;29.55;;;18.58;;
23159;SDS011;11748;50.844;4.396;2024-03-08T02:18:46;26.00;;;18.17;;
23159;SDS011;11748;50.844;4.396;2024-03-08T02:21:11;27.42;;;19.13;;
23159;SDS011;11748;50.844;4.396;2024-03-08T02:23:38;27.17;;;19.00;;
23159;SDS011;11748;50.844;4.396;2024-03-08T02:26:05;28.48;;;19.50;;
23159;SDS011;11748;50.844;4.396;2024-03-08T02:28:32;28.98;;;19.38;;
23159;SDS011;11748;50.844;4.396;2024-03-08T02:30:59;29.20;;;19.17;;
23159;SDS011;11748;50.844;4.396;2024-03-08T02:33:25;28.50;;;19.83;;
23159;SDS011;11748;50.844;4.396;2024-03-08T02:35:52;29.30;;;19.42;;
23159;SDS011;11748;50.844;4.396;2024-03-08T02:38:18;30.05;;;19.63;;
23159;SDS011;11748;50.844;4.396;2024-03-08T02:40:45;29.38;;;19.90;;
23159;SDS011;11748;50.844;4.396;2024-03-08T02:43:12;27.23;;;18.95;;
23159;SDS011;11748;50.844;4.396;2024-03-08T02:45:39;30.67;;;20.17;;
23159;SDS011;11748;50.844;4.396;2024-03-08T02:48:07;29.58;;;20.42;;
23159;SDS011;11748;50.844;4.396;2024-03-08T02:50:33;30.00;;;20.38;;
23159;SDS011;11748;50.844;4.396;2024-03-08T02:53:02;30.92;;;20.58;;
23159;SDS011;11748;50.844;4.396;2024-03-08T02:55:29;28.70;;;19.90;;
23159;SDS011;11748;50.844;4.396;2024-03-08T02:57:55;27.77;;;20.42;;
23159;SDS011;11748;50.844;4.396;2024-03-08T03:00:21;29.25;;;20.48;;
23159;SDS011;11748;50.844;4.396;2024-03-08T03:02:48;28.58;;;20.88;;
23159;SDS011;11748;50.844;4.396;2024-03-08T03:05:20;26.77;;;20.25;;
23159;SDS011;11748;50.844;4.396;2024-03-08T03:07:46;28.02;;;19.55;;
23159;SDS011;11748;50.844;4.396;2024-03-08T03:10:12;31.95;;;20.90;;
23159;SDS011;11748;50.844;4.396;2024-03-08T03:12:42;32.35;;;21.85;;
23159;SDS011;11748;50.844;4.396;2024-03-08T03:15:12;29.45;;;21.13;;
23159;SDS011;11748;50.844;4.396;2024-03-08T03:17:38;29.95;;;20.55;;
23159;SDS011;11748;50.844;4.396;2024-03-08T03:20:06;28.05;;;21.25;;
23159;SDS011;11748;50.844;4.396;2024-03-08T03:22:38;29.58;;;22.00;;
23159;SDS011;11748;50.844;4.396;2024-03-08T03:25:05;32.80;;;22.08;;
23159;SDS011;11748;50.844;4.396;2024-03-08T03:27:34;29.85;;;20.85;;
23159;SDS011;11748;50.844;4.396;2024-03-08T03:30:00;30.52;;;21.85;;
23159;SDS011;11748;50.844;4.396;2024-03-08T03:35:18;30.33;;;20.80;;
23159;SDS011;11748;50.844;4.396;2024-03-08T03:37:45;31.67;;;21.58;;
23159;SDS011;11748;50.844;4.396;2024-03-08T03:40:26;28.38;;;22.25;;
23159;SDS011;11748;50.844;4.396;2024-03-08T03:42:53;30.95;;;21.65;;
23159;SDS011;11748;50.844;4.396;2024-03-08T03:45:19;31.95;;;22.08;;
23159;SDS011;11748;50.844;4.396;2024-03-08T03:47:45;29.80;;;22.15;;
23159;SDS011;11748;50.844;4.396;2024-03-08T03:50:11;27.00;;;21.13;;
23159;SDS011;11748;50.844;4.396;2024-03-08T03:52:37;28.05;;;21.08;;
23159;SDS011;11748;50.844;4.396;2024-03-08T03:55:03;30.15;;;22.30;;
23159;SDS011;11748;50.844;4.396;2024-03-08T03:57:30;29.42;;;20.73;;
23159;SDS011;11748;50.844;4.396;2024-03-08T03:59:58;27.80;;;20.73;;
23159;SDS011;11748;50.844;4.396;2024-03-08T04:02:24;28.85;;;20.88;;
23159;SDS011;11748;50.844;4.396;2024-03-08T04:04:51;33.95;;;22.45;;
23159;SDS011;11748;50.844;4.396;2024-03-08T04:07:18;31.02;;;21.88;;
23159;SDS011;11748;50.844;4.396;2024-03-08T04:09:45;32.17;;;22.83;;
23159;SDS011;11748;50.844;4.396;2024-03-08T04:12:12;33.83;;;22.02;;
23159;SDS011;11748;50.844;4.396;2024-03-08T04:14:41;28.70;;;21.55;;
23159;SDS011;11748;50.844;4.396;2024-03-08T04:17:07;30.83;;;22.65;;
23159;SDS011;11748;50.844;4.396;2024-03-08T04:19:35;32.38;;;22.00;;
23159;SDS011;11748;50.844;4.396;2024-03-08T04:22:01;29.05;;;22.38;;
23159;SDS011;11748;50.844;4.396;2024-03-08T04:24:27;31.52;;;22.33;;
23159;SDS011;11748;50.844;4.396;2024-03-08T04:26:54;31.48;;;22.85;;
23159;SDS011;11748;50.844;4.396;2024-03-08T04:29:19;31.63;;;22.50;;
23159;SDS011;11748;50.844;4.396;2024-03-08T04:31:47;30.63;;;22.77;;
23159;SDS011;11748;50.844;4.396;2024-03-08T04:34:13;30.70;;;22.50;;
23159;SDS011;11748;50.844;4.396;2024-03-08T04:36:39;30.20;;;21.83;;
23159;SDS011;11748;50.844;4.396;2024-03-08T04:39:05;29.17;;;21.92;;
23159;SDS011;11748;50.844;4.396;2024-03-08T04:41:31;33.63;;;23.17;;
23159;SDS011;11748;50.844;4.396;2024-03-08T04:44:02;32.35;;;22.92;;
23159;SDS011;11748;50.844;4.396;2024-03-08T04:46:28;37.03;;;23.48;;
23159;SDS011;11748;50.844;4.396;2024-03-08T04:48:53;31.27;;;23.42;;
23159;SDS011;11748;50.844;4.396;2024-03-08T04:51:19;33.78;;;23.55;;
23159;SDS011;11748;50.844;4.396;2024-03-08T04:53:45;33.90;;;22.45;;
23159;SDS011;11748;50.844;4.396;2024-03-08T04:56:10;31.77;;;22.05;;
23159;SDS011;11748;50.844;4.396;2024-03-08T04:58:36;31.50;;;22.80;;
23159;SDS011;11748;50.844;4.396;2024-03-08T05:01:02;33.83;;;23.38;;
23159;SDS011;11748;50.844;4.396;2024-03-08T05:03:28;31.58;;;22.42;;
23159;SDS011;11748;50.844;4.396;2024-03-08T05:05:54;30.60;;;23.33;;
23159;SDS011;11748;50.844;4.396;2024-03-08T05:08:20;33.13;;;23.85;;
23159;SDS011;11748;50.844;4.396;2024-03-08T05:10:45;33.35;;;22.80;;
23159;SDS011;11748;50.844;4.396;2024-03-08T05:13:11;31.90;;;23.80;;
23159;SDS011;11748;50.844;4.396;2024-03-08T05:15:38;33.97;;;23.70;;
23159;SDS011;11748;50.844;4.396;2024-03-08T05:18:04;35.85;;;23.73;;
23159;SDS011;11748;50.844;4.396;2024-03-08T05:20:30;32.55;;;22.30;;
23159;SDS011;11748;50.844;4.396;2024-03-08T05:22:56;31.90;;;22.98;;
23159;SDS011;11748;50.844;4.396;2024-03-08T05:25:26;30.88;;;22.77;;
23159;SDS011;11748;50.844;4.396;2024-03-08T05:27:55;32.05;;;22.85;;
23159;SDS011;11748;50.844;4.396;2024-03-08T05:30:22;32.75;;;23.15;;
23159;SDS011;11748;50.844;4.396;2024-03-08T05:32:48;30.83;;;22.05;;
23159;SDS011;11748;50.844;4.396;2024-03-08T05:35:14;30.33;;;22.17;;
23159;SDS011;11748;50.844;4.396;2024-03-08T05:37:42;30.08;;;22.60;;
23159;SDS011;11748;50.844;4.396;2024-03-08T05:40:09;32.60;;;22.35;;
23159;SDS011;11748;50.844;4.396;2024-03-08T05:42:35;30.20;;;22.65;;
23159;SDS011;11748;50.844;4.396;2024-03-08T05:45:05;35.13;;;23.63;;
23159;SDS011;11748;50.844;4.396;2024-03-08T05:47:36;31.42;;;21.48;;
23159;SDS011;11748;50.844;4.396;2024-03-08T05:50:01;32.28;;;22.33;;
23159;SDS011;11748;50.844;4.396;2024-03-08T05:52:28;35.47;;;23.05;;
23159;SDS011;11748;50.844;4.396;2024-03-08T05:54:54;32.90;;;22.63;;
23159;SDS011;11748;50.844;4.396;2024-03-08T05:57:19;31.55;;;22.50;;
23159;SDS011;11748;50.844;4.396;2024-03-08T05:59:47;33.92;;;22.42;;
23159;SDS011;11748;50.844;4.396;2024-03-08T06:02:14;33.20;;;23.05;;
23159;SDS011;11748;50.844;4.396;2024-03-08T06:04:45;30.85;;;22.60;;
23159;SDS011;11748;50.844;4.396;2024-03-08T06:07:12;35.00;;;22.75;;
23159;SDS011;11748;50.844;4.396;2024-03-08T06:09:38;31.25;;;22.10;;
23159;SDS011;11748;50.844;4.396;2024-03-08T06:12:05;32.50;;;22.90;;
23159;SDS011;11748;50.844;4.396;2024-03-08T06:14:31;31.38;;;22.55;;
23159;SDS011;11748;50.844;4.396;2024-03-08T06:16:57;34.33;;;23.45;;
23159;SDS011;11748;50.844;4.396;2024-03-08T06:19:23;33.63;;;23.13;;
23159;SDS011;11748;50.844;4.396;2024-03-08T06:21:48;32.97;;;22.48;;
23159;SDS011;11748;50.844;4.396;2024-03-08T06:24:14;31.48;;;22.27;;
23159;SDS011;11748;50.844;4.396;2024-03-08T06:26:42;31.23;;;23.75;;
23159;SDS011;11748;50.844;4.396;2024-03-08T06:29:08;31.73;;;22.40;;
23159;SDS011;11748;50.844;4.396;2024-03-08T06:31:33;34.30;;;23.30;;
23159;SDS011;11748;50.844;4.396;2024-03-08T06:33:59;31.45;;;22.00;;
23159;SDS011;11748;50.844;4.396;2024-03-08T06:36:25;33.65;;;23.13;;
23159;SDS011;11748;50.844;4.396;2024-03-08T06:38:51;32.60;;;23.20;;
23159;SDS011;11748;50.844;4.396;2024-03-08T06:41:17;32.55;;;22.35;;
23159;SDS011;11748;50.844;4.396;2024-03-08T06:43:44;31.73;;;22.75;;
23159;SDS011;11748;50.844;4.396;2024-03-08T06:46:10;32.95;;;23.75;;
23159;SDS011;11748;50.844;4.396;2024-03-08T06:48:45;32.42;;;22.27;;
23159;SDS011;11748;50.844;4.396;2024-03-08T06:51:17;31.25;;;22.98;;
23159;SDS011;11748;50.844;4.396;2024-03-08T06:53:43;33.95;;;23.77;;
23159;SDS011;11748;50.844;4.396;2024-03-08T06:56:09;33.35;;;23.77;;
23159;SDS011;11748;50.844;4.396;2024-03-08T06:58:35;31.10;;;21.15;;
23159;SDS011;11748;50.844;4.396;2024-03-08T07:01:00;32.55;;;22.65;;
23159;SDS011;11748;50.844;4.396;2024-03-08T07:03:29;31.10;;;21.55;;
23159;SDS011;11748;50.844;4.396;2024-03-08T07:05:58;33.22;;;22.65;;
23159;SDS011;11748;50.844;4.396;2024-03-08T07:08:23;32.88;;;21.90;;
23159;SDS011;11748;50.844;4.396;2024-03-08T07:10:49;35.15;;;22.60;;
23159;SDS011;11748;50.844;4.396;2024-03-08T07:13:27;32.95;;;21.30;;
23159;SDS011;11748;50.844;4.396;2024-03-08T07:16:04;32.40;;;21.70;;
23159;SDS011;11748;50.844;4.396;2024-03-08T07:18:30;31.23;;;22.05;;
23159;SDS011;11748;50.844;4.396;2024-03-08T07:20:56;31.48;;;22.73;;
23159;SDS011;11748;50.844;4.396;2024-03-08T07:23:22;34.10;;;22.33;;
23159;SDS011;11748;50.844;4.396;2024-03-08T07:26:17;33.80;;;21.27;;
23159;SDS011;11748;50.844;4.396;2024-03-08T07:28:44;35.20;;;21.25;;
23159;SDS011;11748;50.844;4.396;2024-03-08T07:31:09;33.28;;;22.40;;
23159;SDS011;11748;50.844;4.396;2024-03-08T07:33:48;33.60;;;21.20;;
23159;SDS011;11748;50.844;4.396;2024-03-08T07:36:15;36.78;;;22.35;;
23159;SDS011;11748;50.844;4.396;2024-03-08T07:38:41;34.33;;;21.23;;
23159;SDS011;11748;50.844;4.396;2024-03-08T07:41:06;33.22;;;22.30;;
23159;SDS011;11748;50.844;4.396;2024-03-08T07:43:32;30.67;;;20.95;;
23159;SDS011;11748;50.844;4.396;2024-03-08T07:45:58;34.80;;;22.05;;
23159;SDS011;11748;50.844;4.396;2024-03-08T07:48:24;28.83;;;21.00;;
23159;SDS011;11748;50.844;4.396;2024-03-08T07:50:51;30.42;;;20.80;;
23159;SDS011;11748;50.844;4.396;2024-03-08T07:53:16;30.77;;;20.52;;
23159;SDS011;11748;50.844;4.396;2024-03-08T07:55:42;31.52;;;20.35;;
23159;SDS011;11748;50.844;4.396;2024-03-08T07:58:09;31.27;;;20.95;;
23159;SDS011;11748;50.844;4.396;2024-03-08T08:00:36;29.30;;;20.85;;
23159;SDS011;11748;50.844;4.396;2024-03-08T08:03:02;30.08;;;21.05;;
23159;SDS011;11748;50.844;4.396;2024-03-08T08:05:28;34.88;;;21.98;;
23159;SDS011;11748;50.844;4.396;2024-03-08T08:07:55;31.77;;;21.60;;
23159;SDS011;11748;50.844;4.396;2024-03-08T08:10:22;31.00;;;20.48;;
23159;SDS011;11748;50.844;4.396;2024-03-08T08:12:49;30.23;;;21.02;;
23159;SDS011;11748;50.844;4.396;2024-03-08T08:15:16;31.33;;;20.75;;
23159;SDS011;11748;50.844;4.396;2024-03-08T08:17:46;30.73;;;20.75;;
23159;SDS011;11748;50.844;4.396;2024-03-08T08:20:12;32.08;;;20.95;;
23159;SDS011;11748;50.844;4.396;2024-03-08T08:22:42;30.88;;;20.63;;
23159;SDS011;11748;50.844;4.396;2024-03-08T08:25:09;29.20;;;19.70;;
23159;SDS011;11748;50.844;4.396;2024-03-08T08:27:38;30.65;;;20.42;;
23159;SDS011;11748;50.844;4.396;2024-03-08T08:30:10;27.42;;;19.50;;
23159;SDS011;11748;50.844;4.396;2024-03-08T08:32:36;30.08;;;19.75;;
23159;SDS011;11748;50.844;4.396;2024-03-08T08:35:04;28.20;;;20.35;;
23159;SDS011;11748;50.844;4.396;2024-03-08T08:37:40;32.83;;;20.10;;
23159;SDS011;11748;50.844;4.396;2024-03-08T08:40:06;30.23;;;20.20;;
23159;SDS011;11748;50.844;4.396;2024-03-08T08:42:39;29.15;;;19.05;;
23159;SDS011;11748;50.844;4.396;2024-03-08T08:45:08;29.77;;;19.85;;
23159;SDS011;11748;50.844;4.396;2024-03-08T08:47:35;31.42;;;19.75;;
23159;SDS011;11748;50.844;4.396;2024-03-08T08:50:01;30.52;;;19.90;;
23159;SDS011;11748;50.844;4.396;2024-03-08T08:52:27;28.88;;;18.63;;
23159;SDS011;11748;50.844;4.396;2024-03-08T08:54:54;28.83;;;19.27;;
23159;SDS011;11748;50.844;4.396;2024-03-08T08:57:21;27.90;;;19.15;;
23159;SDS011;11748;50.844;4.396;2024-03-08T08:59:46;27.60;;;18.42;;
23159;SDS011;11748;50.844;4.396;2024-03-08T09:02:18;30.23;;;18.92;;
23159;SDS011;11748;50.844;4.396;2024-03-08T09:04:46;28.65;;;18.35;;
23159;SDS011;11748;50.844;4.396;2024-03-08T09:07:13;29.38;;;18.95;;
23159;SDS011;11748;50.844;4.396;2024-03-08T09:09:39;31.23;;;18.88;;
23159;SDS011;11748;50.844;4.396;2024-03-08T09:12:04;30.75;;;18.75;;
23159;SDS011;11748;50.844;4.396;2024-03-08T09:14:31;28.98;;;18.58;;
23159;SDS011;11748;50.844;4.396;2024-03-08T09:16:58;28.20;;;17.83;;
23159;SDS011;11748;50.844;4.396;2024-03-08T09:19:24;27.85;;;18.42;;
23159;SDS011;11748;50.844;4.396;2024-03-08T09:21:52;26.05;;;17.60;;
23159;SDS011;11748;50.844;4.396;2024-03-08T09:24:23;26.20;;;17.70;;
23159;SDS011;11748;50.844;4.396;2024-03-08T09:26:49;25.55;;;17.55;;
23159;SDS011;11748;50.844;4.396;2024-03-08T09:29:15;25.35;;;17.05;;
23159;SDS011;11748;50.844;4.396;2024-03-08T09:31:41;25.52;;;16.58;;
23159;SDS011;11748;50.844;4.396;2024-03-08T09:34:06;23.33;;;16.98;;
23159;SDS011;11748;50.844;4.396;2024-03-08T09:36:34;25.75;;;17.23;;
23159;SDS011;11748;50.844;4.396;2024-03-08T09:39:00;26.90;;;17.55;;
23159;SDS011;11748;50.844;4.396;2024-03-08T09:41:26;23.83;;;16.27;;
23159;SDS011;11748;50.844;4.396;2024-03-08T09:43:52;27.27;;;17.00;;
23159;SDS011;11748;50.844;4.396;2024-03-08T09:46:35;26.13;;;17.15;;
23159;SDS011;11748;50.844;4.396;2024-03-08T09:49:03;24.70;;;16.55;;
23159;SDS011;11748;50.844;4.396;2024-03-08T09:51:30;22.25;;;15.77;;
23159;SDS011;11748;50.844;4.396;2024-03-08T09:54:00;25.48;;;15.70;;
23159;SDS011;11748;50.844;4.396;2024-03-08T09:56:29;22.83;;;15.90;;
23159;SDS011;11748;50.844;4.396;2024-03-08T09:58:58;23.90;;;16.48;;
23159;SDS011;11748;50.844;4.396;2024-03-08T10:01:34;22.08;;;15.55;;
23159;SDS011;11748;50.844;4.396;2024-03-08T10:04:02;23.83;;;17.30;;
23159;SDS011;11748;50.844;4.396;2024-03-08T10:06:27;23.15;;;16.13;;
23159;SDS011;11748;50.844;4.396;2024-03-08T10:08:53;24.02;;;16.15;;
23159;SDS011;11748;50.844;4.396;2024-03-08T10:11:25;23.67;;;16.08;;
23159;SDS011;11748;50.844;4.396;2024-03-08T10:13:52;23.27;;;16.08;;
23159;SDS011;11748;50.844;4.396;2024-03-08T10:16:17;26.83;;;16.27;;
23159;SDS011;11748;50.844;4.396;2024-03-08T10:18:44;21.98;;;15.45;;
23159;SDS011;11748;50.844;4.396;2024-03-08T10:21:11;25.23;;;15.10;;
23159;SDS011;11748;50.844;4.396;2024-03-08T10:23:37;25.50;;;16.17;;
23159;SDS011;11748;50.844;4.396;2024-03-08T10:26:15;23.60;;;15.40;;
23159;SDS011;11748;50.844;4.396;2024-03-08T10:28:42;22.13;;;14.40;;
23159;SDS011;11748;50.844;4.396;2024-03-08T10:31:09;24.42;;;15.68;;
23159;SDS011;11748;50.844;4.396;2024-03-08T10:33:35;21.90;;;15.73;;
23159;SDS011;11748;50.844;4.396;2024-03-08T10:36:03;21.58;;;15.07;;
23159;SDS011;11748;50.844;4.396;2024-03-08T10:38:30;22.38;;;15.18;;
23159;SDS011;11748;50.844;4.396;2024-03-08T10:41:01;21.70;;;15.57;;
23159;SDS011;11748;50.844;4.396;2024-03-08T10:43:31;21.52;;;14.25;;
23159;SDS011;11748;50.844;4.396;2024-03-08T10:46:06;21.52;;;14.90;;
23159;SDS011;11748;50.844;4.396;2024-03-08T10:48:43;24.33;;;15.73;;
23159;SDS011;11748;50.844;4.396;2024-03-08T10:51:11;23.98;;;15.77;;
23159;SDS011;11748;50.844;4.396;2024-03-08T10:53:39;21.52;;;15.52;;
23159;SDS011;11748;50.844;4.396;2024-03-08T10:56:06;21.50;;;15.25;;
23159;SDS011;11748;50.844;4.396;2024-03-08T10:58:34;23.00;;;15.68;;
23159;SDS011;11748;50.844;4.396;2024-03-08T11:01:01;21.00;;;14.75;;
23159;SDS011;11748;50.844;4.396;2024-03-08T11:06:15;22.15;;;14.48;;
23159;SDS011;11748;50.844;4.396;2024-03-08T11:08:43;21.13;;;14.40;;
23159;SDS011;11748;50.844;4.396;2024-03-08T11:11:23;23.95;;;14.50;;
23159;SDS011;11748;50.844;4.396;2024-03-08T11:13:57;25.70;;;15.48;;
23159;SDS011;11748;50.844;4.396;2024-03-08T11:18:54;21.85;;;14.88;;
23159;SDS011;11748;50.844;4.396;2024-03-08T11:21:26;26.00;;;15.90;;
23159;SDS011;11748;50.844;4.396;2024-03-08T11:24:05;23.27;;;15.10;;
23159;SDS011;11748;50.844;4.396;2024-03-08T11:26:33;22.52;;;14.90;;
23159;SDS011;11748;50.844;4.396;2024-03-08T11:32:15;22.45;;;14.38;;
23159;SDS011;11748;50.844;4.396;2024-03-08T11:34:41;18.85;;;13.90;;
23159;SDS011;11748;50.844;4.396;2024-03-08T11:37:15;24.50;;;16.23;;
23159;SDS011;11748;50.844;4.396;2024-03-08T11:39:46;19.95;;;14.38;;
23159;SDS011;11748;50.844;4.396;2024-03-08T11:42:14;20.85;;;14.10;;
23159;SDS011;11748;50.844;4.396;2024-03-08T11:44:42;23.02;;;15.23;;
23159;SDS011;11748;50.844;4.396;2024-03-08T11:47:12;18.95;;;13.95;;
23159;SDS011;11748;50.844;4.396;2024-03-08T11:49:39;20.13;;;14.65;;
23159;SDS011;11748;50.844;4.396;2024-03-08T11:52:12;20.52;;;14.43;;
23159;SDS011;11748;50.844;4.396;2024-03-08T11:54:38;21.35;;;15.13;;
23159;SDS011;11748;50.844;4.396;2024-03-08T11:57:09;20.60;;;14.07;;
23159;SDS011;11748;50.844;4.396;2024-03-08T11:59:35;20.65;;;13.88;;
23159;SDS011;11748;50.844;4.396;2024-03-08T12:02:02;20.48;;;15.18;;
23159;SDS011;11748;50.844;4.396;2024-03-08T12:04:29;21.50;;;14.38;;
23159;SDS011;11748;50.844;4.396;2024-03-08T12:06:56;21.52;;;14.65;;
23159;SDS011;11748;50.844;4.396;2024-03-08T12:09:26;22.23;;;14.05;;
23159;SDS011;11748;50.844;4.396;2024-03-08T12:11:52;19.23;;;14.43;;
23159;SDS011;11748;50.844;4.396;2024-03-08T12:14:18;19.85;;;14.00;;
23159;SDS011;11748;50.844;4.396;2024-03-08T12:16:44;22.35;;;14.75;;
23159;SDS011;11748;50.844;4.396;2024-03-08T12:19:09;18.73;;;13.23;;
23159;SDS011;11748;50.844;4.396;2024-03-08T12:21:35;19.77;;;13.77;;
23159;SDS011;11748;50.844;4.396;2024-03-08T12:24:08;18.67;;;13.80;;
23159;SDS011;11748;50.844;4.396;2024-03-08T12:26:37;21.20;;;14.48;;
23159;SDS011;11748;50.844;4.396;2024-03-08T12:31:55;21.35;;;13.90;;
23159;SDS011;11748;50.844;4.396;2024-03-08T12:34:23;21.40;;;13.85;;
23159;SDS011;11748;50.844;4.396;2024-03-08T12:36:51;19.98;;;13.75;;
23159;SDS011;11748;50.844;4.396;2024-03-08T12:39:18;18.80;;;13.07;;
23159;SDS011;11748;50.844;4.396;2024-03-08T12:41:47;20.55;;;14.00;;
23159;SDS011;11748;50.844;4.396;2024-03-08T12:44:16;19.15;;;13.15;;
23159;SDS011;11748;50.844;4.396;2024-03-08T12:46:44;23.15;;;14.30;;
23159;SDS011;11748;50.844;4.396;2024-03-08T12:49:10;19.08;;;14.02;;
23159;SDS011;11748;50.844;4.396;2024-03-08T12:51:38;21.23;;;13.35;;
23159;SDS011;11748;50.844;4.396;2024-03-08T12:54:04;18.75;;;13.50;;
23159;SDS011;11748;50.844;4.396;2024-03-08T12:56:32;20.40;;;13.85;;
23159;SDS011;11748;50.844;4.396;2024-03-08T12:59:00;21.17;;;13.32;;
23159;SDS011;11748;50.844;4.396;2024-03-08T13:01:26;19.58;;;13.45;;
23159;SDS011;11748;50.844;4.396;2024-03-08T13:03:52;19.92;;;13.93;;
23159;SDS011;11748;50.844;4.396;2024-03-08T13:06:19;20.88;;;14.13;;
23159;SDS011;11748;50.844;4.396;2024-03-08T13:08:49;20.05;;;13.68;;
23159;SDS011;11748;50.844;4.396;2024-03-08T13:11:19;19.15;;;13.43;;
23159;SDS011;11748;50.844;4.396;2024-03-08T13:13:45;18.45;;;13.43;;
23159;SDS011;11748;50.844;4.396;2024-03-08T13:16:11;18.63;;;13.27;;
23159;SDS011;11748;50.844;4.396;2024-03-08T13:18:40;23.40;;;12.27;;
23159;SDS011;11748;50.844;4.396;2024-03-08T13:21:10;23.55;;;13.80;;
23159;SDS011;11748;50.844;4.396;2024-03-08T13:23:38;19.48;;;13.18;;
23159;SDS011;11748;50.844;4.396;2024-03-08T13:26:08;19.75;;;13.20;;
23159;SDS011;11748;50.844;4.396;2024-03-08T13:28:37;17.13;;;13.65;;
23159;SDS011;11748;50.844;4.396;2024-03-08T13:31:06;19.23;;;13.55;;
23159;SDS011;11748;50.844;4.396;2024-03-08T13:33:36;21.98;;;13.57;;
23159;SDS011;11748;50.844;4.396;2024-03-08T13:36:04;20.90;;;13.20;;
23159;SDS011;11748;50.844;4.396;2024-03-08T13:38:40;20.42;;;13.00;;
23159;SDS011;11748;50.844;4.396;2024-03-08T13:41:13;17.80;;;12.40;;
23159;SDS011;11748;50.844;4.396;2024-03-08T13:43:41;20.40;;;12.35;;
23159;SDS011;11748;50.844;4.396;2024-03-08T13:46:08;19.38;;;12.65;;
23159;SDS011;11748;50.844;4.396;2024-03-08T13:48:35;18.70;;;12.52;;
23159;SDS011;11748;50.844;4.396;2024-03-08T13:51:03;21.85;;;12.70;;
23159;SDS011;11748;50.844;4.396;2024-03-08T13:53:31;19.10;;;13.13;;
23159;SDS011;11748;50.844;4.396;2024-03-08T13:55:57;17.13;;;12.82;;
23159;SDS011;11748;50.844;4.396;2024-03-08T13:58:23;18.55;;;12.77;;
23159;SDS011;11748;50.844;4.396;2024-03-08T14:00:49;16.92;;;11.45;;
23159;SDS011;11748;50.844;4.396;2024-03-08T14:03:16;19.80;;;12.73;;
23159;SDS011;11748;50.844;4.396;2024-03-08T14:05:43;16.23;;;12.20;;
23159;SDS011;11748;50.844;4.396;2024-03-08T14:08:10;19.38;;;12.73;;
23159;SDS011;11748;50.844;4.396;2024-03-08T14:10:37;20.27;;;12.57;;
23159;SDS011;11748;50.844;4.396;2024-03-08T14:13:03;19.00;;;12.38;;
23159;SDS011;11748;50.844;4.396;2024-03-08T14:15:31;18.52;;;12.48;;
23159;SDS011;11748;50.844;4.396;2024-03-08T14:17:57;18.25;;;12.25;;
23159;SDS011;11748;50.844;4.396;2024-03-08T14:20:24;17.67;;;13.07;;
23159;SDS011;11748;50.844;4.396;2024-03-08T14:22:52;18.63;;;12.40;;
23159;SDS011;11748;50.844;4.396;2024-03-08T14:25:21;19.67;;;12.57;;
23159;SDS011;11748;50.844;4.396;2024-03-08T14:27:50;17.80;;;12.88;;
23159;SDS011;11748;50.844;4.396;2024-03-08T14:30:20;17.70;;;12.23;;
23159;SDS011;11748;50.844;4.396;2024-03-08T14:33:00;18.17;;;12.65;;
23159;SDS011;11748;50.844;4.396;2024-03-08T14:35:27;19.05;;;12.65;;
23159;SDS011;11748;50.844;4.396;2024-03-08T14:37:52;20.55;;;11.73;;